sensor_id;sensor_type;location;lat;lon;timestamp;P1;durP1;ratioP1;P2;durP2;ratioP2
64653;SDS011;51065;48.884;12.598;2023-11-21T00:01:16;4.82;;;2.10;;
64653;SDS011;51065;48.884;12.598;2023-11-21T00:03:42;3.60;;;1.60;;
64653;SDS011;51065;48.884;12.598;2023-11-21T00:06:08;3.35;;;1.63;;
64653;SDS011;51065;48.884;12.598;2023-11-21T00:08:34;4.93;;;1.58;;
64653;SDS011;51065;48.884;12.598;2023-11-21T00:11:00;4.70;;;1.83;;
64653;SDS011;51065;48.884;12.598;2023-11-21T00:13:26;3.35;;;1.40;;
64653;SDS011;51065;48.884;12.598;2023-11-21T00:15:52;4.05;;;1.35;;
64653;SDS011;51065;48.884;12.598;2023-11-21T00:18:17;5.25;;;1.90;;
64653;SDS011;51065;48.884;12.598;2023-11-21T00:20:43;7.90;;;3.28;;
64653;SDS011;51065;48.884;12.598;2023-11-21T00:23:09;5.88;;;2.55;;
64653;SDS011;51065;48.884;12.598;2023-11-21T00:25:34;7.45;;;2.65;;
64653;SDS011;51065;48.884;12.598;2023-11-21T00:28:00;6.07;;;2.05;;
64653;SDS011;51065;48.884;12.598;2023-11-21T00:30:26;3.25;;;2.05;;
64653;SDS011;51065;48.884;12.598;2023-11-21T00:32:52;3.90;;;1.77;;
64653;SDS011;51065;48.884;12.598;2023-11-21T00:35:18;5.65;;;1.80;;
64653;SDS011;51065;48.884;12.598;2023-11-21T00:37:43;3.88;;;1.70;;
64653;SDS011;51065;48.884;12.598;2023-11-21T00:40:09;4.18;;;1.90;;
64653;SDS011;51065;48.884;12.598;2023-11-21T00:42:35;4.57;;;1.73;;
64653;SDS011;51065;48.884;12.598;2023-11-21T00:45:01;4.65;;;1.70;;
64653;SDS011;51065;48.884;12.598;2023-11-21T00:47:27;5.80;;;1.95;;
64653;SDS011;51065;48.884;12.598;2023-11-21T00:49:52;5.20;;;1.60;;
64653;SDS011;51065;48.884;12.598;2023-11-21T00:52:18;2.83;;;1.50;;
64653;SDS011;51065;48.884;12.598;2023-11-21T00:54:43;7.03;;;1.70;;
64653;SDS011;51065;48.884;12.598;2023-11-21T00:57:09;3.80;;;1.38;;
64653;SDS011;51065;48.884;12.598;2023-11-21T00:59:36;4.53;;;1.55;;
64653;SDS011;51065;48.884;12.598;2023-11-21T01:02:02;3.05;;;1.48;;
64653;SDS011;51065;48.884;12.598;2023-11-21T01:04:29;2.78;;;1.50;;
64653;SDS011;51065;48.884;12.598;2023-11-21T01:06:56;2.72;;;1.50;;
64653;SDS011;51065;48.884;12.598;2023-11-21T01:09:22;3.80;;;1.50;;
64653;SDS011;51065;48.884;12.598;2023-11-21T01:11:49;2.03;;;1.25;;
64653;SDS011;51065;48.884;12.598;2023-11-21T01:14:14;3.63;;;1.70;;
64653;SDS011;51065;48.884;12.598;2023-11-21T01:16:40;3.08;;;1.70;;
64653;SDS011;51065;48.884;12.598;2023-11-21T01:19:05;4.35;;;2.13;;
64653;SDS011;51065;48.884;12.598;2023-11-21T01:21:31;3.83;;;1.77;;
64653;SDS011;51065;48.884;12.598;2023-11-21T01:23:57;3.00;;;1.48;;
64653;SDS011;51065;48.884;12.598;2023-11-21T01:26:22;2.33;;;1.50;;
64653;SDS011;51065;48.884;12.598;2023-11-21T01:28:48;6.68;;;2.25;;
64653;SDS011;51065;48.884;12.598;2023-11-21T01:31:14;3.05;;;1.92;;
64653;SDS011;51065;48.884;12.598;2023-11-21T01:33:40;5.32;;;2.20;;
64653;SDS011;51065;48.884;12.598;2023-11-21T01:36:06;3.97;;;2.13;;
64653;SDS011;51065;48.884;12.598;2023-11-21T01:38:32;4.25;;;2.13;;
64653;SDS011;51065;48.884;12.598;2023-11-21T01:40:57;5.55;;;1.90;;
64653;SDS011;51065;48.884;12.598;2023-11-21T01:43:26;5.30;;;2.00;;
64653;SDS011;51065;48.884;12.598;2023-11-21T01:45:53;4.35;;;2.20;;
64653;SDS011;51065;48.884;12.598;2023-11-21T01:48:22;5.22;;;1.98;;
64653;SDS011;51065;48.884;12.598;2023-11-21T01:50:48;3.65;;;1.85;;
64653;SDS011;51065;48.884;12.598;2023-11-21T01:53:14;6.63;;;2.03;;
64653;SDS011;51065;48.884;12.598;2023-11-21T01:55:40;4.35;;;2.22;;
64653;SDS011;51065;48.884;12.598;2023-11-21T01:58:07;4.90;;;2.33;;
64653;SDS011;51065;48.884;12.598;2023-11-21T02:00:33;5.65;;;2.22;;
64653;SDS011;51065;48.884;12.598;2023-11-21T02:02:59;4.82;;;2.28;;
64653;SDS011;51065;48.884;12.598;2023-11-21T02:05:24;6.68;;;2.13;;
64653;SDS011;51065;48.884;12.598;2023-11-21T02:07:51;6.22;;;2.20;;
64653;SDS011;51065;48.884;12.598;2023-11-21T02:10:17;5.50;;;2.33;;
64653;SDS011;51065;48.884;12.598;2023-11-21T02:12:47;4.90;;;1.90;;
64653;SDS011;51065;48.884;12.598;2023-11-21T02:15:15;3.58;;;1.95;;
64653;SDS011;51065;48.884;12.598;2023-11-21T02:17:44;4.00;;;2.17;;
64653;SDS011;51065;48.884;12.598;2023-11-21T02:20:20;6.57;;;2.25;;
64653;SDS011;51065;48.884;12.598;2023-11-21T02:22:50;4.05;;;1.92;;
64653;SDS011;51065;48.884;12.598;2023-11-21T02:25:26;3.88;;;2.08;;
64653;SDS011;51065;48.884;12.598;2023-11-21T02:27:54;4.55;;;1.88;;
64653;SDS011;51065;48.884;12.598;2023-11-21T02:30:20;4.38;;;2.10;;
64653;SDS011;51065;48.884;12.598;2023-11-21T02:32:47;3.10;;;1.60;;
64653;SDS011;51065;48.884;12.598;2023-11-21T02:35:18;3.00;;;1.90;;
64653;SDS011;51065;48.884;12.598;2023-11-21T02:37:46;2.55;;;1.90;;
64653;SDS011;51065;48.884;12.598;2023-11-21T02:40:12;3.47;;;1.90;;
64653;SDS011;51065;48.884;12.598;2023-11-21T02:42:38;3.58;;;2.05;;
64653;SDS011;51065;48.884;12.598;2023-11-21T02:45:05;3.50;;;2.00;;
64653;SDS011;51065;48.884;12.598;2023-11-21T02:47:31;3.63;;;1.85;;
64653;SDS011;51065;48.884;12.598;2023-11-21T02:49:57;4.07;;;1.88;;
64653;SDS011;51065;48.884;12.598;2023-11-21T02:52:23;4.00;;;2.10;;
64653;SDS011;51065;48.884;12.598;2023-11-21T02:54:48;6.43;;;2.03;;
64653;SDS011;51065;48.884;12.598;2023-11-21T02:57:14;5.45;;;2.17;;
64653;SDS011;51065;48.884;12.598;2023-11-21T02:59:40;4.25;;;1.92;;
64653;SDS011;51065;48.884;12.598;2023-11-21T03:02:05;7.25;;;2.00;;
64653;SDS011;51065;48.884;12.598;2023-11-21T03:04:33;8.40;;;2.30;;
64653;SDS011;51065;48.884;12.598;2023-11-21T03:07:00;5.13;;;2.13;;
64653;SDS011;51065;48.884;12.598;2023-11-21T03:09:25;5.60;;;2.33;;
64653;SDS011;51065;48.884;12.598;2023-11-21T03:11:52;3.17;;;1.88;;
64653;SDS011;51065;48.884;12.598;2023-11-21T03:14:18;8.15;;;2.17;;
64653;SDS011;51065;48.884;12.598;2023-11-21T03:16:45;4.50;;;2.30;;
64653;SDS011;51065;48.884;12.598;2023-11-21T03:19:11;6.00;;;2.30;;
64653;SDS011;51065;48.884;12.598;2023-11-21T03:21:36;6.40;;;2.20;;
64653;SDS011;51065;48.884;12.598;2023-11-21T03:24:03;5.28;;;2.50;;
64653;SDS011;51065;48.884;12.598;2023-11-21T03:26:29;8.02;;;2.70;;
64653;SDS011;51065;48.884;12.598;2023-11-21T03:28:55;5.28;;;2.53;;
64653;SDS011;51065;48.884;12.598;2023-11-21T03:31:20;4.78;;;2.60;;
64653;SDS011;51065;48.884;12.598;2023-11-21T03:33:46;7.97;;;2.85;;
64653;SDS011;51065;48.884;12.598;2023-11-21T03:36:12;5.10;;;2.42;;
64653;SDS011;51065;48.884;12.598;2023-11-21T03:38:40;5.80;;;2.30;;
64653;SDS011;51065;48.884;12.598;2023-11-21T03:41:06;5.47;;;2.42;;
64653;SDS011;51065;48.884;12.598;2023-11-21T03:43:35;8.52;;;2.47;;
64653;SDS011;51065;48.884;12.598;2023-11-21T03:46:01;7.45;;;3.00;;
64653;SDS011;51065;48.884;12.598;2023-11-21T03:48:26;6.07;;;2.70;;
64653;SDS011;51065;48.884;12.598;2023-11-21T03:50:52;14.63;;;3.25;;
64653;SDS011;51065;48.884;12.598;2023-11-21T03:53:17;7.13;;;3.17;;
64653;SDS011;51065;48.884;12.598;2023-11-21T03:55:43;7.18;;;3.00;;
64653;SDS011;51065;48.884;12.598;2023-11-21T03:58:10;8.30;;;2.85;;
64653;SDS011;51065;48.884;12.598;2023-11-21T04:00:35;8.38;;;2.63;;
64653;SDS011;51065;48.884;12.598;2023-11-21T04:03:01;8.40;;;3.70;;
64653;SDS011;51065;48.884;12.598;2023-11-21T04:05:26;7.88;;;3.22;;
64653;SDS011;51065;48.884;12.598;2023-11-21T04:07:55;7.97;;;3.03;;
64653;SDS011;51065;48.884;12.598;2023-11-21T04:10:20;7.53;;;2.88;;
64653;SDS011;51065;48.884;12.598;2023-11-21T04:12:46;6.45;;;3.22;;
64653;SDS011;51065;48.884;12.598;2023-11-21T04:15:13;6.18;;;3.08;;
64653;SDS011;51065;48.884;12.598;2023-11-21T04:17:39;5.13;;;2.75;;
64653;SDS011;51065;48.884;12.598;2023-11-21T04:20:05;10.57;;;3.67;;
64653;SDS011;51065;48.884;12.598;2023-11-21T04:22:34;10.80;;;3.80;;
64653;SDS011;51065;48.884;12.598;2023-11-21T04:25:02;9.98;;;4.47;;
64653;SDS011;51065;48.884;12.598;2023-11-21T04:27:30;9.13;;;3.47;;
64653;SDS011;51065;48.884;12.598;2023-11-21T04:29:56;8.98;;;3.90;;
64653;SDS011;51065;48.884;12.598;2023-11-21T04:32:21;7.78;;;3.08;;
64653;SDS011;51065;48.884;12.598;2023-11-21T04:34:47;7.00;;;3.05;;
64653;SDS011;51065;48.884;12.598;2023-11-21T04:37:13;8.25;;;3.15;;
64653;SDS011;51065;48.884;12.598;2023-11-21T04:39:38;8.23;;;3.67;;
64653;SDS011;51065;48.884;12.598;2023-11-21T04:42:04;8.00;;;3.88;;
64653;SDS011;51065;48.884;12.598;2023-11-21T04:44:29;7.10;;;3.17;;
64653;SDS011;51065;48.884;12.598;2023-11-21T04:46:55;8.85;;;3.55;;
64653;SDS011;51065;48.884;12.598;2023-11-21T04:49:21;6.25;;;3.00;;
64653;SDS011;51065;48.884;12.598;2023-11-21T04:51:46;5.88;;;3.15;;
64653;SDS011;51065;48.884;12.598;2023-11-21T04:54:12;8.45;;;3.17;;
64653;SDS011;51065;48.884;12.598;2023-11-21T04:56:37;7.70;;;3.25;;
64653;SDS011;51065;48.884;12.598;2023-11-21T04:59:03;8.60;;;3.30;;
64653;SDS011;51065;48.884;12.598;2023-11-21T05:01:29;7.28;;;3.42;;
64653;SDS011;51065;48.884;12.598;2023-11-21T05:03:55;8.55;;;3.00;;
64653;SDS011;51065;48.884;12.598;2023-11-21T05:06:21;6.53;;;3.25;;
64653;SDS011;51065;48.884;12.598;2023-11-21T05:08:48;8.13;;;2.80;;
64653;SDS011;51065;48.884;12.598;2023-11-21T05:11:24;5.25;;;2.72;;
64653;SDS011;51065;48.884;12.598;2023-11-21T05:13:53;5.82;;;2.63;;
64653;SDS011;51065;48.884;12.598;2023-11-21T05:16:21;5.47;;;2.80;;
64653;SDS011;51065;48.884;12.598;2023-11-21T05:18:47;4.65;;;2.80;;
64653;SDS011;51065;48.884;12.598;2023-11-21T05:21:13;6.65;;;2.70;;
64653;SDS011;51065;48.884;12.598;2023-11-21T05:23:38;4.63;;;2.97;;
64653;SDS011;51065;48.884;12.598;2023-11-21T05:26:05;6.13;;;2.88;;
64653;SDS011;51065;48.884;12.598;2023-11-21T05:28:30;6.93;;;2.88;;
64653;SDS011;51065;48.884;12.598;2023-11-21T05:30:56;7.00;;;2.70;;
64653;SDS011;51065;48.884;12.598;2023-11-21T05:33:21;5.80;;;2.97;;
64653;SDS011;51065;48.884;12.598;2023-11-21T05:35:47;8.20;;;3.15;;
64653;SDS011;51065;48.884;12.598;2023-11-21T05:38:15;3.92;;;2.50;;
64653;SDS011;51065;48.884;12.598;2023-11-21T05:40:41;6.68;;;3.15;;
64653;SDS011;51065;48.884;12.598;2023-11-21T05:43:06;5.15;;;2.35;;
64653;SDS011;51065;48.884;12.598;2023-11-21T05:45:32;7.13;;;3.08;;
64653;SDS011;51065;48.884;12.598;2023-11-21T05:47:58;3.83;;;2.15;;
64653;SDS011;51065;48.884;12.598;2023-11-21T05:50:24;3.85;;;2.30;;
64653;SDS011;51065;48.884;12.598;2023-11-21T05:52:49;7.55;;;2.40;;
64653;SDS011;51065;48.884;12.598;2023-11-21T05:55:15;3.85;;;2.30;;
64653;SDS011;51065;48.884;12.598;2023-11-21T05:57:41;4.95;;;1.88;;
64653;SDS011;51065;48.884;12.598;2023-11-21T06:00:08;6.15;;;2.25;;
64653;SDS011;51065;48.884;12.598;2023-11-21T06:02:48;5.18;;;2.30;;
64653;SDS011;51065;48.884;12.598;2023-11-21T06:05:21;4.20;;;1.90;;
64653;SDS011;51065;48.884;12.598;2023-11-21T06:07:48;4.20;;;1.90;;
64653;SDS011;51065;48.884;12.598;2023-11-21T06:10:14;4.28;;;2.03;;
64653;SDS011;51065;48.884;12.598;2023-11-21T06:12:42;6.32;;;2.22;;
64653;SDS011;51065;48.884;12.598;2023-11-21T06:15:08;6.20;;;2.67;;
64653;SDS011;51065;48.884;12.598;2023-11-21T06:17:38;5.72;;;2.20;;
64653;SDS011;51065;48.884;12.598;2023-11-21T06:20:05;3.88;;;1.88;;
64653;SDS011;51065;48.884;12.598;2023-11-21T06:22:38;6.65;;;2.10;;
64653;SDS011;51065;48.884;12.598;2023-11-21T06:25:04;6.82;;;2.53;;
64653;SDS011;51065;48.884;12.598;2023-11-21T06:27:36;5.82;;;2.50;;
64653;SDS011;51065;48.884;12.598;2023-11-21T06:30:05;6.50;;;2.70;;
64653;SDS011;51065;48.884;12.598;2023-11-21T06:32:34;4.20;;;2.60;;
64653;SDS011;51065;48.884;12.598;2023-11-21T06:35:00;5.25;;;2.30;;
64653;SDS011;51065;48.884;12.598;2023-11-21T06:37:29;6.53;;;2.83;;
64653;SDS011;51065;48.884;12.598;2023-11-21T06:39:56;6.82;;;3.28;;
64653;SDS011;51065;48.884;12.598;2023-11-21T06:42:23;8.75;;;2.83;;
64653;SDS011;51065;48.884;12.598;2023-11-21T06:44:49;6.68;;;3.42;;
64653;SDS011;51065;48.884;12.598;2023-11-21T06:47:17;6.03;;;2.40;;
64653;SDS011;51065;48.884;12.598;2023-11-21T06:49:45;8.05;;;2.50;;
64653;SDS011;51065;48.884;12.598;2023-11-21T06:52:12;6.32;;;2.70;;
64653;SDS011;51065;48.884;12.598;2023-11-21T06:54:38;6.78;;;2.95;;
64653;SDS011;51065;48.884;12.598;2023-11-21T06:57:04;8.70;;;3.08;;
64653;SDS011;51065;48.884;12.598;2023-11-21T06:59:30;3.70;;;2.40;;
64653;SDS011;51065;48.884;12.598;2023-11-21T07:01:56;8.38;;;2.92;;
64653;SDS011;51065;48.884;12.598;2023-11-21T07:04:22;7.60;;;2.55;;
64653;SDS011;51065;48.884;12.598;2023-11-21T07:06:47;5.63;;;2.53;;
64653;SDS011;51065;48.884;12.598;2023-11-21T07:09:13;6.90;;;3.38;;
64653;SDS011;51065;48.884;12.598;2023-11-21T07:11:38;5.07;;;2.88;;
64653;SDS011;51065;48.884;12.598;2023-11-21T07:14:04;5.68;;;2.75;;
64653;SDS011;51065;48.884;12.598;2023-11-21T07:16:37;6.18;;;2.85;;
64653;SDS011;51065;48.884;12.598;2023-11-21T07:19:05;7.82;;;3.13;;
64653;SDS011;51065;48.884;12.598;2023-11-21T07:21:32;7.65;;;3.72;;
64653;SDS011;51065;48.884;12.598;2023-11-21T07:23:59;10.02;;;4.10;;
64653;SDS011;51065;48.884;12.598;2023-11-21T07:26:26;5.93;;;3.17;;
64653;SDS011;51065;48.884;12.598;2023-11-21T07:28:52;8.77;;;3.45;;
64653;SDS011;51065;48.884;12.598;2023-11-21T07:31:18;6.07;;;2.95;;
64653;SDS011;51065;48.884;12.598;2023-11-21T07:33:44;8.85;;;3.22;;
64653;SDS011;51065;48.884;12.598;2023-11-21T07:36:12;7.05;;;3.53;;
64653;SDS011;51065;48.884;12.598;2023-11-21T07:38:38;8.23;;;3.05;;
64653;SDS011;51065;48.884;12.598;2023-11-21T07:41:04;7.93;;;3.35;;
64653;SDS011;51065;48.884;12.598;2023-11-21T07:43:32;7.72;;;3.15;;
64653;SDS011;51065;48.884;12.598;2023-11-21T07:46:03;7.50;;;3.63;;
64653;SDS011;51065;48.884;12.598;2023-11-21T07:48:30;7.25;;;3.63;;
64653;SDS011;51065;48.884;12.598;2023-11-21T07:50:56;6.57;;;3.00;;
64653;SDS011;51065;48.884;12.598;2023-11-21T07:53:23;6.55;;;3.30;;
64653;SDS011;51065;48.884;12.598;2023-11-21T07:55:50;7.32;;;3.60;;
64653;SDS011;51065;48.884;12.598;2023-11-21T07:58:16;6.30;;;3.55;;
64653;SDS011;51065;48.884;12.598;2023-11-21T08:00:41;8.50;;;3.72;;
64653;SDS011;51065;48.884;12.598;2023-11-21T08:03:07;9.18;;;3.50;;
64653;SDS011;51065;48.884;12.598;2023-11-21T08:05:32;9.30;;;3.75;;
64653;SDS011;51065;48.884;12.598;2023-11-21T08:07:58;8.05;;;3.55;;
64653;SDS011;51065;48.884;12.598;2023-11-21T08:10:24;8.15;;;3.22;;
64653;SDS011;51065;48.884;12.598;2023-11-21T08:12:50;6.35;;;3.28;;
64653;SDS011;51065;48.884;12.598;2023-11-21T08:15:15;11.00;;;3.72;;
64653;SDS011;51065;48.884;12.598;2023-11-21T08:17:41;7.97;;;3.13;;
64653;SDS011;51065;48.884;12.598;2023-11-21T08:20:07;7.60;;;3.20;;
64653;SDS011;51065;48.884;12.598;2023-11-21T08:22:35;7.15;;;3.33;;
64653;SDS011;51065;48.884;12.598;2023-11-21T08:25:01;7.90;;;3.47;;
64653;SDS011;51065;48.884;12.598;2023-11-21T08:27:29;9.77;;;3.47;;
64653;SDS011;51065;48.884;12.598;2023-11-21T08:29:55;5.88;;;3.55;;
64653;SDS011;51065;48.884;12.598;2023-11-21T08:32:22;7.68;;;3.25;;
64653;SDS011;51065;48.884;12.598;2023-11-21T08:34:47;7.85;;;3.45;;
64653;SDS011;51065;48.884;12.598;2023-11-21T08:37:15;8.23;;;3.70;;
64653;SDS011;51065;48.884;12.598;2023-11-21T08:39:43;7.30;;;3.45;;
64653;SDS011;51065;48.884;12.598;2023-11-21T08:42:09;10.70;;;3.38;;
64653;SDS011;51065;48.884;12.598;2023-11-21T08:44:34;7.25;;;3.50;;
64653;SDS011;51065;48.884;12.598;2023-11-21T08:47:00;11.40;;;3.45;;
64653;SDS011;51065;48.884;12.598;2023-11-21T08:49:25;9.80;;;3.72;;
64653;SDS011;51065;48.884;12.598;2023-11-21T08:51:52;7.07;;;2.97;;
64653;SDS011;51065;48.884;12.598;2023-11-21T08:54:20;6.15;;;3.03;;
64653;SDS011;51065;48.884;12.598;2023-11-21T08:56:46;7.13;;;3.20;;
64653;SDS011;51065;48.884;12.598;2023-11-21T08:59:11;7.35;;;3.05;;
64653;SDS011;51065;48.884;12.598;2023-11-21T09:01:41;5.55;;;2.92;;
64653;SDS011;51065;48.884;12.598;2023-11-21T09:04:09;6.68;;;2.83;;
64653;SDS011;51065;48.884;12.598;2023-11-21T09:06:35;5.88;;;2.80;;
64653;SDS011;51065;48.884;12.598;2023-11-21T09:09:00;7.78;;;3.35;;
64653;SDS011;51065;48.884;12.598;2023-11-21T09:11:26;6.63;;;2.88;;
64653;SDS011;51065;48.884;12.598;2023-11-21T09:13:58;7.50;;;3.15;;
64653;SDS011;51065;48.884;12.598;2023-11-21T09:16:24;8.70;;;3.42;;
64653;SDS011;51065;48.884;12.598;2023-11-21T09:18:50;9.20;;;3.95;;
64653;SDS011;51065;48.884;12.598;2023-11-21T09:21:15;5.95;;;3.28;;
64653;SDS011;51065;48.884;12.598;2023-11-21T09:23:42;5.70;;;3.10;;
64653;SDS011;51065;48.884;12.598;2023-11-21T09:26:11;6.97;;;3.30;;
64653;SDS011;51065;48.884;12.598;2023-11-21T09:28:36;7.10;;;3.15;;
64653;SDS011;51065;48.884;12.598;2023-11-21T09:31:03;7.10;;;3.13;;
64653;SDS011;51065;48.884;12.598;2023-11-21T09:33:29;12.13;;;3.72;;
64653;SDS011;51065;48.884;12.598;2023-11-21T09:35:56;7.95;;;3.33;;
64653;SDS011;51065;48.884;12.598;2023-11-21T09:38:22;7.57;;;3.58;;
64653;SDS011;51065;48.884;12.598;2023-11-21T09:40:48;8.43;;;3.45;;
64653;SDS011;51065;48.884;12.598;2023-11-21T09:43:17;5.85;;;3.28;;
64653;SDS011;51065;48.884;12.598;2023-11-21T09:45:47;5.30;;;2.95;;
64653;SDS011;51065;48.884;12.598;2023-11-21T09:48:18;9.57;;;3.53;;
64653;SDS011;51065;48.884;12.598;2023-11-21T09:50:47;8.18;;;3.60;;
64653;SDS011;51065;48.884;12.598;2023-11-21T09:55:50;8.57;;;3.80;;
64653;SDS011;51065;48.884;12.598;2023-11-21T09:58:18;9.38;;;4.15;;
64653;SDS011;51065;48.884;12.598;2023-11-21T10:00:45;8.73;;;3.85;;
64653;SDS011;51065;48.884;12.598;2023-11-21T10:03:12;8.70;;;3.35;;
64653;SDS011;51065;48.884;12.598;2023-11-21T10:05:39;7.03;;;3.28;;
64653;SDS011;51065;48.884;12.598;2023-11-21T10:08:10;7.03;;;3.03;;
64653;SDS011;51065;48.884;12.598;2023-11-21T10:10:37;6.88;;;3.05;;
64653;SDS011;51065;48.884;12.598;2023-11-21T10:13:07;6.07;;;3.22;;
64653;SDS011;51065;48.884;12.598;2023-11-21T10:15:37;7.45;;;3.28;;
64653;SDS011;51065;48.884;12.598;2023-11-21T10:18:03;6.18;;;3.35;;
64653;SDS011;51065;48.884;12.598;2023-11-21T10:20:31;8.18;;;3.55;;
64653;SDS011;51065;48.884;12.598;2023-11-21T10:22:58;7.78;;;3.55;;
64653;SDS011;51065;48.884;12.598;2023-11-21T10:25:26;7.43;;;3.72;;
64653;SDS011;51065;48.884;12.598;2023-11-21T10:27:56;7.22;;;3.20;;
64653;SDS011;51065;48.884;12.598;2023-11-21T10:30:32;7.78;;;3.90;;
64653;SDS011;51065;48.884;12.598;2023-11-21T10:33:03;9.48;;;3.47;;
64653;SDS011;51065;48.884;12.598;2023-11-21T10:38:26;7.07;;;3.40;;
64653;SDS011;51065;48.884;12.598;2023-11-21T10:40:53;8.27;;;3.47;;
64653;SDS011;51065;48.884;12.598;2023-11-21T10:43:20;6.95;;;3.50;;
64653;SDS011;51065;48.884;12.598;2023-11-21T10:45:50;7.82;;;2.90;;
64653;SDS011;51065;48.884;12.598;2023-11-21T10:48:16;8.55;;;3.28;;
64653;SDS011;51065;48.884;12.598;2023-11-21T10:50:42;8.30;;;3.40;;
64653;SDS011;51065;48.884;12.598;2023-11-21T10:53:09;13.82;;;3.47;;
64653;SDS011;51065;48.884;12.598;2023-11-21T10:55:36;6.65;;;2.90;;
64653;SDS011;51065;48.884;12.598;2023-11-21T10:58:03;7.18;;;2.78;;
64653;SDS011;51065;48.884;12.598;2023-11-21T11:00:30;6.72;;;2.70;;
64653;SDS011;51065;48.884;12.598;2023-11-21T11:02:57;8.80;;;3.42;;
64653;SDS011;51065;48.884;12.598;2023-11-21T11:05:24;7.50;;;3.10;;
64653;SDS011;51065;48.884;12.598;2023-11-21T11:07:51;4.75;;;2.45;;
64653;SDS011;51065;48.884;12.598;2023-11-21T11:10:24;6.60;;;2.70;;
64653;SDS011;51065;48.884;12.598;2023-11-21T11:12:52;7.82;;;2.92;;
64653;SDS011;51065;48.884;12.598;2023-11-21T11:15:19;8.43;;;2.80;;
64653;SDS011;51065;48.884;12.598;2023-11-21T11:17:45;5.88;;;2.53;;
64653;SDS011;51065;48.884;12.598;2023-11-21T11:20:13;6.90;;;3.00;;
64653;SDS011;51065;48.884;12.598;2023-11-21T11:22:50;7.75;;;2.72;;
64653;SDS011;51065;48.884;12.598;2023-11-21T11:28:20;5.30;;;2.50;;
64653;SDS011;51065;48.884;12.598;2023-11-21T11:34:06;5.93;;;2.67;;
64653;SDS011;51065;48.884;12.598;2023-11-21T11:36:49;6.72;;;2.55;;
64653;SDS011;51065;48.884;12.598;2023-11-21T11:39:26;6.68;;;3.00;;
64653;SDS011;51065;48.884;12.598;2023-11-21T11:42:03;7.10;;;2.28;;
64653;SDS011;51065;48.884;12.598;2023-11-21T11:50:05;6.95;;;2.53;;
64653;SDS011;51065;48.884;12.598;2023-11-21T11:52:45;6.75;;;2.75;;
64653;SDS011;51065;48.884;12.598;2023-11-21T11:55:14;4.43;;;2.50;;
64653;SDS011;51065;48.884;12.598;2023-11-21T11:57:44;4.43;;;2.15;;
64653;SDS011;51065;48.884;12.598;2023-11-21T12:02:55;8.07;;;2.85;;
64653;SDS011;51065;48.884;12.598;2023-11-21T12:05:22;7.32;;;2.88;;
64653;SDS011;51065;48.884;12.598;2023-11-21T12:07:49;6.65;;;2.80;;
64653;SDS011;51065;48.884;12.598;2023-11-21T12:10:20;6.15;;;2.45;;
64653;SDS011;51065;48.884;12.598;2023-11-21T12:12:48;5.70;;;2.50;;
64653;SDS011;51065;48.884;12.598;2023-11-21T12:15:15;7.55;;;2.85;;
64653;SDS011;51065;48.884;12.598;2023-11-21T12:17:41;7.20;;;2.60;;
64653;SDS011;51065;48.884;12.598;2023-11-21T12:20:09;7.45;;;2.72;;
64653;SDS011;51065;48.884;12.598;2023-11-21T12:22:49;7.68;;;3.05;;
64653;SDS011;51065;48.884;12.598;2023-11-21T12:25:16;6.18;;;2.80;;
64653;SDS011;51065;48.884;12.598;2023-11-21T12:27:44;6.70;;;2.67;;
64653;SDS011;51065;48.884;12.598;2023-11-21T12:30:17;5.60;;;2.20;;
64653;SDS011;51065;48.884;12.598;2023-11-21T12:32:45;6.65;;;2.50;;
64653;SDS011;51065;48.884;12.598;2023-11-21T12:35:13;5.20;;;2.40;;
64653;SDS011;51065;48.884;12.598;2023-11-21T12:37:39;5.00;;;2.25;;
64653;SDS011;51065;48.884;12.598;2023-11-21T12:40:08;4.68;;;2.67;;
64653;SDS011;51065;48.884;12.598;2023-11-21T12:42:40;4.88;;;1.90;;
64653;SDS011;51065;48.884;12.598;2023-11-21T12:47:56;5.75;;;2.20;;
64653;SDS011;51065;48.884;12.598;2023-11-21T12:50:25;6.47;;;2.78;;
64653;SDS011;51065;48.884;12.598;2023-11-21T12:53:09;6.28;;;2.60;;
64653;SDS011;51065;48.884;12.598;2023-11-21T12:55:41;6.88;;;2.42;;
64653;SDS011;51065;48.884;12.598;2023-11-21T12:58:08;6.20;;;2.70;;
64653;SDS011;51065;48.884;12.598;2023-11-21T13:03:14;6.53;;;2.40;;
64653;SDS011;51065;48.884;12.598;2023-11-21T13:05:50;4.93;;;2.25;;
64653;SDS011;51065;48.884;12.598;2023-11-21T13:08:18;5.65;;;2.17;;
64653;SDS011;51065;48.884;12.598;2023-11-21T13:10:48;7.90;;;2.75;;
64653;SDS011;51065;48.884;12.598;2023-11-21T13:13:19;4.85;;;2.40;;
64653;SDS011;51065;48.884;12.598;2023-11-21T13:15:49;7.68;;;3.20;;
64653;SDS011;51065;48.884;12.598;2023-11-21T13:18:22;5.85;;;2.28;;
64653;SDS011;51065;48.884;12.598;2023-11-21T13:20:48;5.38;;;2.45;;
64653;SDS011;51065;48.884;12.598;2023-11-21T13:23:15;5.93;;;2.60;;
64653;SDS011;51065;48.884;12.598;2023-11-21T13:25:41;5.90;;;2.58;;
64653;SDS011;51065;48.884;12.598;2023-11-21T13:28:08;4.07;;;2.08;;
64653;SDS011;51065;48.884;12.598;2023-11-21T13:30:37;4.25;;;1.90;;
64653;SDS011;51065;48.884;12.598;2023-11-21T13:33:05;8.48;;;3.67;;
64653;SDS011;51065;48.884;12.598;2023-11-21T13:35:33;7.93;;;3.53;;
64653;SDS011;51065;48.884;12.598;2023-11-21T13:38:06;6.68;;;3.03;;
64653;SDS011;51065;48.884;12.598;2023-11-21T13:40:34;8.85;;;3.40;;
64653;SDS011;51065;48.884;12.598;2023-11-21T13:43:07;5.38;;;2.83;;
64653;SDS011;51065;48.884;12.598;2023-11-21T13:45:35;8.52;;;3.08;;
64653;SDS011;51065;48.884;12.598;2023-11-21T13:48:01;5.25;;;2.72;;
64653;SDS011;51065;48.884;12.598;2023-11-21T13:50:27;6.97;;;2.55;;
64653;SDS011;51065;48.884;12.598;2023-11-21T13:53:05;4.68;;;2.40;;
64653;SDS011;51065;48.884;12.598;2023-11-21T13:55:41;4.82;;;2.42;;
64653;SDS011;51065;48.884;12.598;2023-11-21T13:58:07;6.25;;;2.92;;
64653;SDS011;51065;48.884;12.598;2023-11-21T14:00:36;6.88;;;2.90;;
64653;SDS011;51065;48.884;12.598;2023-11-21T14:03:12;7.97;;;2.88;;
64653;SDS011;51065;48.884;12.598;2023-11-21T14:05:46;6.38;;;2.97;;
64653;SDS011;51065;48.884;12.598;2023-11-21T14:08:19;8.82;;;3.20;;
64653;SDS011;51065;48.884;12.598;2023-11-21T14:10:46;7.57;;;2.92;;
64653;SDS011;51065;48.884;12.598;2023-11-21T14:13:19;8.37;;;3.33;;
64653;SDS011;51065;48.884;12.598;2023-11-21T14:15:48;5.70;;;2.83;;
64653;SDS011;51065;48.884;12.598;2023-11-21T14:18:16;6.38;;;3.22;;
64653;SDS011;51065;48.884;12.598;2023-11-21T14:20:42;9.57;;;3.22;;
64653;SDS011;51065;48.884;12.598;2023-11-21T14:23:09;6.25;;;2.78;;
64653;SDS011;51065;48.884;12.598;2023-11-21T14:25:36;6.85;;;2.97;;
64653;SDS011;51065;48.884;12.598;2023-11-21T14:28:02;5.20;;;2.60;;
64653;SDS011;51065;48.884;12.598;2023-11-21T14:30:29;6.07;;;2.75;;
64653;SDS011;51065;48.884;12.598;2023-11-21T14:32:57;4.43;;;2.42;;
64653;SDS011;51065;48.884;12.598;2023-11-21T14:35:23;5.82;;;2.70;;
64653;SDS011;51065;48.884;12.598;2023-11-21T14:37:49;5.25;;;2.50;;
64653;SDS011;51065;48.884;12.598;2023-11-21T14:40:14;5.55;;;2.72;;
64653;SDS011;51065;48.884;12.598;2023-11-21T14:42:41;4.97;;;2.72;;
64653;SDS011;51065;48.884;12.598;2023-11-21T14:45:13;4.70;;;2.58;;
64653;SDS011;51065;48.884;12.598;2023-11-21T14:47:44;6.90;;;2.80;;
64653;SDS011;51065;48.884;12.598;2023-11-21T14:50:16;8.88;;;3.70;;
64653;SDS011;51065;48.884;12.598;2023-11-21T14:53:00;10.43;;;4.53;;
64653;SDS011;51065;48.884;12.598;2023-11-21T14:55:29;8.55;;;3.85;;
64653;SDS011;51065;48.884;12.598;2023-11-21T14:58:07;5.30;;;3.10;;
64653;SDS011;51065;48.884;12.598;2023-11-21T15:00:37;7.28;;;3.60;;